Terminal Aerodrome Forecast
Issued by NWS

Home | Current Version | Previous Version | Text Only | Print | Product List | Glossary On
Versions: 1 2 3 4 5 6 7 8 9 10 11 12 13 14 15 16 17 18 19 20 21 22 23 24 25 26 27 28 29 30 31 32 33 34 35 36
000
FTAK31 PAFA 011246 AAA
TAFAOM
TAF AMD
PAOM 011246Z 0113/0212 00000KT P6SM OVC015
     FM011800 18005KT P6SM OVC015
     FM012100 18010KT P6SM OVC015
     FM020600 13005KT P6SM BKN015
     FM021000 10005KT P6SM BKN100 OVC200=

USA.gov is the U.S. government's official web portal to all federal, state and local government web resources and services.